Time;durP1;ratioP1;P1;durP2;ratioP2;P2;SDS_P1;SDS_P2;PMS_P1;PMS_P2;Temp;Humidity;BMP_temperature;BMP_pressure;BME280_temperature;BME280_humidity;BME280_pressure;Samples;Min_cycle;Max_cycle;Signal;HPM_P1;HPM_P2
2023/01/01 00:01:11;;;;;;;46.00;41.37;;;14.40;99.90;;;;;;5072408;28;20451;-73
2023/01/01 00:03:37;;;;;;;50.33;44.90;;;14.30;99.90;;;;;;5054738;28;20182;-73
2023/01/01 00:06:12;;;;;;;41.67;37.33;;;14.20;99.90;;;;;;5073263;28;20474;-74
2023/01/01 00:08:39;;;;;;;46.43;34.73;;;14.20;99.90;;;;;;5055201;28;20400;-73
2023/01/01 00:11:07;;;;;;;30.17;27.00;;;14.20;99.90;;;;;;5055029;28;20431;-73
2023/01/01 00:13:33;;;;;;;25.03;22.33;;;14.20;99.90;;;;;;5073294;28;20403;-73
2023/01/01 00:16:11;;;;;;;27.90;25.03;;;14.10;99.90;;;;;;5073326;28;20482;-73
2023/01/01 00:18:37;;;;;;;30.00;26.73;;;14.20;99.90;;;;;;5051203;28;20412;-73
2023/01/01 00:21:10;;;;;;;18.80;16.10;;;14.20;99.90;;;;;;5072977;28;20464;-74
2023/01/01 00:23:35;;;;;;;15.17;13.37;;;14.30;99.90;;;;;;5073444;28;20419;-73
2023/01/01 00:26:11;;;;;;;15.97;14.40;;;14.30;99.90;;;;;;5073194;28;20822;-74
2023/01/01 00:28:37;;;;;;;12.23;10.93;;;14.30;99.90;;;;;;5072028;28;20178;-73
2023/01/01 00:31:12;;;;;;;8.97;8.07;;;14.30;99.90;;;;;;5073057;28;20417;-74
2023/01/01 00:33:37;;;;;;;8.17;7.37;;;14.40;99.90;;;;;;5073306;28;20499;-74
2023/01/01 00:36:23;;;;;;;7.63;6.93;;;14.50;99.90;;;;;;5071973;28;20500;-74
2023/01/01 00:38:48;;;;;;;8.37;6.83;;;14.60;99.90;;;;;;5073124;28;20180;-74
2023/01/01 00:41:16;;;;;;;6.77;6.07;;;14.60;99.90;;;;;;5072842;28;20426;-73
2023/01/01 00:43:42;;;;;;;6.17;5.47;;;14.70;99.90;;;;;;5054526;28;20518;-74
2023/01/01 00:46:09;;;;;;;8.00;7.20;;;14.80;99.90;;;;;;5072963;28;20412;-74
2023/01/01 00:48:35;;;;;;;8.23;7.40;;;14.70;99.90;;;;;;5073117;28;20439;-73
2023/01/01 00:51:02;;;;;;;8.97;8.10;;;14.70;99.90;;;;;;5054028;28;20477;-74
2023/01/01 00:53:27;;;;;;;7.50;6.30;;;14.70;99.90;;;;;;5054716;28;20401;-74
2023/01/01 00:55:55;;;;;;;6.63;5.93;;;14.70;99.90;;;;;;5072385;28;20414;-74
2023/01/01 00:58:22;;;;;;;7.20;5.43;;;14.70;99.90;;;;;;5072379;28;20177;-74
2023/01/01 01:00:49;;;;;;;7.60;6.50;;;14.70;99.90;;;;;;5072446;28;20497;-74
2023/01/01 01:03:29;;;;;;;7.17;6.00;;;14.70;99.90;;;;;;5072594;28;20461;-74
2023/01/01 01:06:11;;;;;;;9.73;6.20;;;14.70;99.90;;;;;;5054353;28;20478;-74
2023/01/01 01:08:39;;;;;;;6.60;6.00;;;14.60;99.90;;;;;;5072562;28;20390;-73
2023/01/01 01:11:25;;;;;;;8.67;6.93;;;14.60;99.90;;;;;;5072533;28;20947;-74
2023/01/01 01:13:53;;;;;;;8.60;7.60;;;14.60;99.90;;;;;;5054027;28;20830;-72
2023/01/01 01:16:28;;;;;;;8.27;6.97;;;14.60;99.90;;;;;;5072419;28;20460;-74
2023/01/01 01:18:57;;;;;;;10.13;8.50;;;14.60;99.90;;;;;;5072821;28;20792;-74
2023/01/01 01:21:24;;;;;;;12.37;11.17;;;14.30;99.90;;;;;;5072486;28;20430;-74
2023/01/01 01:23:50;;;;;;;11.40;10.20;;;14.20;99.90;;;;;;5054496;28;20423;-74
2023/01/01 01:26:19;;;;;;;12.30;10.53;;;14.20;99.90;;;;;;5072382;28;20778;-73
2023/01/01 01:28:45;;;;;;;13.93;12.00;;;14.30;99.90;;;;;;5071648;28;20432;-74
2023/01/01 01:31:11;;;;;;;12.80;10.90;;;14.30;99.90;;;;;;5075959;28;20478;-74
2023/01/01 01:33:37;;;;;;;13.80;10.87;;;14.30;99.90;;;;;;5076059;28;20447;-74
2023/01/01 01:36:03;;;;;;;17.70;11.87;;;14.20;99.90;;;;;;5075959;28;20434;-74
2023/01/01 01:38:29;;;;;;;10.40;9.27;;;14.00;99.90;;;;;;5075893;28;20182;-73
2023/01/01 01:40:55;;;;;;;11.17;9.97;;;14.00;99.90;;;;;;5074999;28;20445;-74
2023/01/01 01:43:45;;;;;;;13.47;10.70;;;13.90;99.90;;;;;;5075616;28;20287;-74
2023/01/01 01:46:17;;;;;;;14.13;11.13;;;13.80;99.90;;;;;;5057966;28;20161;-74
2023/01/01 01:48:47;;;;;;;11.10;8.90;;;13.70;99.90;;;;;;5075000;28;20419;-74
2023/01/01 01:51:17;;;;;;;68.20;47.67;;;13.70;99.90;;;;;;5057665;28;20437;-74
2023/01/01 01:53:50;;;;;;;70.10;54.60;;;13.60;99.90;;;;;;5075708;28;20411;-74
2023/01/01 01:56:22;;;;;;;46.50;38.83;;;13.50;99.90;;;;;;5075608;28;20387;-73
2023/01/01 01:58:48;;;;;;;37.20;31.50;;;13.50;99.90;;;;;;5074301;28;20459;-74
2023/01/01 02:01:14;;;;;;;20.87;18.70;;;13.40;99.90;;;;;;5075344;28;20451;-74
2023/01/01 02:03:49;;;;;;;18.20;16.10;;;13.30;99.90;;;;;;5075765;28;20204;-74
2023/01/01 02:06:15;;;;;;;12.70;11.40;;;13.30;99.90;;;;;;5075477;28;20188;-73
2023/01/01 02:08:40;;;;;;;12.50;11.00;;;13.20;99.90;;;;;;5075472;28;20450;-74
2023/01/01 02:11:06;;;;;;;14.10;11.30;;;13.10;99.90;;;;;;5075341;28;20483;-74
2023/01/01 02:13:32;;;;;;;13.10;11.33;;;13.10;99.90;;;;;;5074866;28;20247;-74
2023/01/01 02:16:17;;;;;;;12.80;9.80;;;13.20;99.90;;;;;;5053885;28;20184;-74
2023/01/01 02:19:00;;;;;;;10.97;9.43;;;13.10;99.90;;;;;;5076117;28;20758;-73
2023/01/01 02:21:38;;;;;;;10.70;8.30;;;13.30;99.90;;;;;;5075141;28;20445;-74
2023/01/01 02:24:20;;;;;;;8.37;7.10;;;13.40;99.90;;;;;;5057297;28;20410;-74
2023/01/01 02:26:58;;;;;;;9.63;7.67;;;13.60;99.90;;;;;;5075300;28;20761;-75
2023/01/01 02:29:29;;;;;;;7.53;6.47;;;13.90;99.90;;;;;;5054803;28;20775;-74
2023/01/01 02:32:18;;;;;;;9.70;7.20;;;14.10;99.90;;;;;;5037028;28;20471;-74
2023/01/01 02:34:50;;;;;;;8.17;6.90;;;14.30;99.90;;;;;;5054875;28;20889;-74
2023/01/01 02:37:19;;;;;;;8.40;7.60;;;14.20;99.90;;;;;;5054967;28;20471;-74
2023/01/01 02:39:52;;;;;;;8.97;8.07;;;14.30;99.90;;;;;;5054911;28;21025;-74
2023/01/01 02:42:19;;;;;;;10.43;8.80;;;14.30;99.90;;;;;;5055264;28;20427;-73
2023/01/01 02:44:49;;;;;;;9.27;8.37;;;14.20;99.90;;;;;;5036707;28;20416;-74
2023/01/01 02:47:19;;;;;;;10.70;8.70;;;14.20;99.90;;;;;;5060697;28;20410;-74
2023/01/01 02:49:58;;;;;;;9.50;8.50;;;14.20;99.90;;;;;;5056533;28;20447;-74
2023/01/01 02:53:02;;;;;;;8.70;7.80;;;14.20;99.90;;;;;;5073630;28;20431;-74
2023/01/01 02:56:01;;;;;;;9.53;8.53;;;14.30;99.90;;;;;;5074355;28;20579;-74
2023/01/01 03:01:40;;;;;;;11.40;8.63;;;14.30;99.90;;;;;;5074754;28;20443;-74
2023/01/01 03:04:22;;;;;;;10.40;8.53;;;14.20;99.90;;;;;;5074551;28;20769;-74
2023/01/01 03:06:54;;;;;;;9.07;7.57;;;14.10;99.90;;;;;;5075184;28;20430;-74
2023/01/01 03:09:24;;;;;;;7.50;6.40;;;14.30;99.90;;;;;;5075489;28;20410;-74
2023/01/01 03:11:56;;;;;;;9.93;8.00;;;14.40;99.90;;;;;;5074224;28;20415;-75
2023/01/01 03:14:42;;;;;;;9.20;7.37;;;14.30;99.90;;;;;;5074004;28;20408;-72
2023/01/01 03:17:19;;;;;;;8.33;7.53;;;14.30;99.90;;;;;;5074177;28;20434;-74
2023/01/01 03:19:48;;;;;;;10.20;8.33;;;14.20;99.90;;;;;;5074449;28;20545;-73
2023/01/01 03:22:16;;;;;;;10.67;8.47;;;14.30;99.90;;;;;;5056160;28;20413;-73
2023/01/01 03:24:48;;;;;;;9.20;8.00;;;14.20;99.90;;;;;;5074045;28;20494;-73
2023/01/01 03:27:19;;;;;;;9.47;8.13;;;14.10;99.90;;;;;;5073581;28;20418;-73
2023/01/01 03:29:47;;;;;;;10.00;8.20;;;14.10;99.90;;;;;;5073297;28;20764;-72
2023/01/01 03:32:20;;;;;;;9.50;8.13;;;14.10;99.90;;;;;;5073714;28;20773;-73
2023/01/01 03:34:52;;;;;;;9.77;8.77;;;13.90;99.90;;;;;;5055844;28;20451;-73
2023/01/01 03:37:27;;;;;;;9.10;7.17;;;14.00;99.90;;;;;;5073736;28;20430;-73
2023/01/01 03:39:57;;;;;;;8.80;7.90;;;14.10;99.90;;;;;;5073690;28;20886;-73
2023/01/01 03:42:38;;;;;;;11.07;8.43;;;14.00;99.90;;;;;;5074141;28;20404;-72
2023/01/01 03:45:16;;;;;;;9.30;7.77;;;13.80;99.90;;;;;;5073379;28;20429;-73
2023/01/01 03:47:42;;;;;;;8.63;7.73;;;13.80;99.90;;;;;;5055672;28;20466;-74
2023/01/01 03:50:08;;;;;;;9.00;8.10;;;13.80;99.90;;;;;;5073018;28;20469;-74
2023/01/01 03:52:54;;;;;;;10.30;7.63;;;13.70;99.90;;;;;;5073222;28;20448;-74
2023/01/01 03:55:34;;;;;;;8.97;8.07;;;13.60;99.90;;;;;;5073433;28;20478;-74
2023/01/01 03:58:24;;;;;;;9.93;8.53;;;13.50;99.90;;;;;;5072782;28;20482;-73
2023/01/01 04:00:55;;;;;;;9.33;7.73;;;13.40;99.90;;;;;;5082629;22;20486;-71
2023/01/01 04:03:23;;;;;;;11.67;8.67;;;13.30;99.90;;;;;;5072199;28;20501;-71
2023/01/01 04:05:49;;;;;;;8.63;7.60;;;12.90;99.90;;;;;;5073311;28;20387;-72
2023/01/01 04:08:16;;;;;;;9.40;7.07;;;13.00;99.90;;;;;;5072640;28;20394;-72
2023/01/01 04:10:46;;;;;;;8.13;6.97;;;12.80;99.90;;;;;;5073348;28;20471;-72
2023/01/01 04:13:11;;;;;;;11.00;7.30;;;12.80;99.90;;;;;;5073307;28;20428;-72
2023/01/01 04:15:37;;;;;;;9.37;6.97;;;12.70;99.90;;;;;;5072849;28;20456;-72
2023/01/01 04:18:03;;;;;;;7.73;6.93;;;12.70;99.90;;;;;;5073336;28;20189;-73
2023/01/01 04:20:29;;;;;;;6.10;5.40;;;12.60;99.90;;;;;;5073130;28;20188;-73
2023/01/01 04:22:59;;;;;;;7.33;6.63;;;12.70;99.90;;;;;;5073208;28;20404;-71
2023/01/01 04:25:25;;;;;;;7.20;6.37;;;12.70;99.90;;;;;;5071844;28;20171;-72
2023/01/01 04:27:51;;;;;;;7.90;6.40;;;12.70;99.90;;;;;;5072384;28;20477;-74
2023/01/01 04:30:16;;;;;;;8.10;6.53;;;12.80;99.90;;;;;;5072455;28;20404;-72
2023/01/01 04:32:42;;;;;;;6.30;5.70;;;12.90;99.90;;;;;;5073098;28;20250;-71
2023/01/01 04:35:11;;;;;;;6.90;5.93;;;12.90;99.90;;;;;;5073522;28;20633;-71
2023/01/01 04:37:38;;;;;;;6.67;5.37;;;12.90;99.90;;;;;;5071556;28;20450;-73
2023/01/01 04:40:05;;;;;;;6.57;5.87;;;13.00;99.90;;;;;;5073084;28;20430;-72
2023/01/01 04:42:31;;;;;;;7.30;6.20;;;12.90;99.90;;;;;;5072604;28;20432;-71
2023/01/01 04:44:57;;;;;;;5.70;5.07;;;12.90;99.90;;;;;;5072013;28;20922;-72
2023/01/01 04:47:22;;;;;;;5.23;4.70;;;13.00;99.90;;;;;;5072644;28;20408;-72
2023/01/01 04:49:48;;;;;;;7.10;5.93;;;13.00;99.90;;;;;;5073174;28;20702;-71
2023/01/01 04:52:13;;;;;;;6.03;4.67;;;13.10;99.90;;;;;;5071126;28;20190;-72
2023/01/01 04:54:39;;;;;;;5.33;4.53;;;13.20;99.90;;;;;;5072484;28;20641;-72
2023/01/01 04:57:05;;;;;;;5.80;4.90;;;13.20;99.90;;;;;;5072815;28;20188;-72
2023/01/01 04:59:30;;;;;;;5.47;4.50;;;13.30;99.90;;;;;;5072882;28;20171;-72
2023/01/01 05:01:57;;;;;;;5.17;4.67;;;13.20;99.90;;;;;;5072941;28;20255;-73
2023/01/01 05:04:22;;;;;;;4.70;3.53;;;13.30;99.90;;;;;;5075382;28;20247;-72
2023/01/01 05:06:48;;;;;;;4.63;3.73;;;13.40;99.90;;;;;;5076231;28;20847;-72
2023/01/01 05:09:13;;;;;;;5.47;4.00;;;13.50;99.90;;;;;;5076970;28;20177;-72
2023/01/01 05:11:39;;;;;;;4.80;3.70;;;13.60;99.90;;;;;;5076597;28;20191;-72
2023/01/01 05:14:06;;;;;;;5.10;4.27;;;13.80;99.90;;;;;;5076536;28;20635;-73
2023/01/01 05:16:35;;;;;;;4.67;4.03;;;13.90;99.90;;;;;;5075136;28;20192;-71
2023/01/01 05:19:00;;;;;;;4.53;3.97;;;13.90;99.90;;;;;;5076523;28;20768;-72
2023/01/01 05:21:31;;;;;;;6.40;4.60;;;13.80;99.90;;;;;;5075904;28;20432;-74
2023/01/01 05:23:59;;;;;;;5.30;4.80;;;13.80;99.90;;;;;;5077067;28;20164;-71
2023/01/01 05:26:28;;;;;;;6.17;5.07;;;13.60;99.90;;;;;;5076432;28;20409;-72
2023/01/01 05:28:55;;;;;;;5.70;4.80;;;13.50;99.90;;;;;;5074676;28;20431;-72
2023/01/01 05:31:23;;;;;;;6.43;5.20;;;13.40;99.90;;;;;;5074971;28;20441;-71
2023/01/01 05:33:49;;;;;;;6.00;4.73;;;13.30;99.90;;;;;;5076350;28;20415;-72
2023/01/01 05:36:17;;;;;;;6.13;4.60;;;13.20;99.90;;;;;;5076094;28;20440;-72
2023/01/01 05:38:43;;;;;;;6.53;4.90;;;13.30;99.90;;;;;;5076075;28;20426;-71
2023/01/01 05:41:12;;;;;;;5.73;4.40;;;13.30;99.90;;;;;;5075902;28;20426;-72
2023/01/01 05:43:37;;;;;;;4.87;4.40;;;13.30;99.90;;;;;;5076275;28;20188;-72
2023/01/01 05:46:05;;;;;;;6.57;5.70;;;13.30;99.90;;;;;;5076249;28;20400;-71
2023/01/01 05:48:32;;;;;;;5.10;4.50;;;13.10;99.90;;;;;;5076630;28;20180;-71
2023/01/01 05:51:11;;;;;;;6.37;4.80;;;13.10;99.90;;;;;;5074983;28;20446;-72
2023/01/01 05:53:37;;;;;;;6.47;5.13;;;13.10;99.90;;;;;;5076238;28;20423;-72
2023/01/01 05:56:04;;;;;;;6.57;4.10;;;13.10;99.90;;;;;;5076096;28;20449;-72
2023/01/01 05:58:31;;;;;;;6.00;4.83;;;13.20;99.90;;;;;;5075681;28;20977;-71
2023/01/01 06:01:03;;;;;;;6.00;4.43;;;13.30;99.90;;;;;;5074266;28;20454;-71
2023/01/01 06:03:29;;;;;;;5.23;3.93;;;13.30;99.90;;;;;;5076038;28;20387;-72
2023/01/01 06:05:54;;;;;;;6.37;4.80;;;13.20;99.90;;;;;;5070374;28;20416;-71
2023/01/01 06:08:20;;;;;;;5.77;4.50;;;13.20;99.90;;;;;;5075539;28;20181;-71
2023/01/01 06:10:46;;;;;;;6.43;5.03;;;13.30;99.90;;;;;;5075698;28;20192;-71
2023/01/01 06:13:11;;;;;;;4.93;4.40;;;13.30;99.90;;;;;;5076027;28;20181;-71
2023/01/01 06:15:37;;;;;;;5.00;4.23;;;13.40;99.90;;;;;;5074983;28;20235;-71
2023/01/01 06:18:02;;;;;;;6.27;4.73;;;13.30;99.90;;;;;;5075703;28;20208;-71
2023/01/01 06:20:28;;;;;;;5.70;4.73;;;13.30;99.90;;;;;;5073962;28;20296;-71
2023/01/01 06:22:53;;;;;;;6.10;4.30;;;13.30;99.90;;;;;;5076110;28;20170;-72
2023/01/01 06:25:19;;;;;;;4.50;3.93;;;13.20;99.90;;;;;;5075653;28;20166;-71
2023/01/01 06:27:45;;;;;;;4.67;4.27;;;13.20;99.90;;;;;;5074497;28;20611;-72
2023/01/01 06:30:10;;;;;;;5.67;4.57;;;13.20;99.90;;;;;;5074543;28;20607;-72
2023/01/01 06:32:36;;;;;;;6.30;4.33;;;13.30;99.90;;;;;;5074105;28;20184;-72
2023/01/01 06:35:01;;;;;;;4.93;3.73;;;13.30;99.90;;;;;;5075325;28;20671;-72
2023/01/01 06:37:27;;;;;;;5.40;3.60;;;13.20;99.90;;;;;;5073647;28;20581;-71
2023/01/01 06:39:52;;;;;;;4.20;3.80;;;13.00;99.90;;;;;;5074919;28;20541;-72
2023/01/01 06:42:18;;;;;;;5.20;3.60;;;12.90;99.90;;;;;;5074887;28;20237;-71
2023/01/01 06:44:44;;;;;;;5.73;3.40;;;13.10;99.90;;;;;;5074655;28;20167;-72
2023/01/01 06:47:09;;;;;;;5.27;3.37;;;13.00;99.90;;;;;;5074821;28;20162;-72
2023/01/01 06:49:35;;;;;;;4.30;3.13;;;13.00;99.90;;;;;;5074824;28;20642;-72
2023/01/01 06:52:00;;;;;;;3.63;2.90;;;13.00;99.90;;;;;;5072940;28;20204;-72
2023/01/01 06:54:26;;;;;;;4.00;3.50;;;13.00;99.90;;;;;;5074669;28;20169;-72
2023/01/01 06:56:51;;;;;;;4.40;3.53;;;12.90;99.90;;;;;;5074554;28;20195;-72
2023/01/01 06:59:17;;;;;;;4.20;3.27;;;12.90;99.90;;;;;;5073121;28;20261;-71
2023/01/01 07:01:42;;;;;;;4.57;3.17;;;12.90;99.90;;;;;;5074204;28;20297;-72
2023/01/01 07:04:13;;;;;;;5.97;3.53;;;12.80;99.90;;;;;;5074849;28;20174;-71
2023/01/01 07:06:39;;;;;;;6.20;3.30;;;12.80;99.90;;;;;;5074242;28;20191;-72
2023/01/01 07:09:06;;;;;;;11.10;4.20;;;12.90;99.90;;;;;;5074460;28;20405;-71
2023/01/01 07:11:32;;;;;;;4.13;3.63;;;13.00;99.90;;;;;;5074563;28;20194;-72
2023/01/01 07:13:58;;;;;;;3.60;3.20;;;13.10;99.90;;;;;;5074295;28;20417;-71
2023/01/01 07:16:24;;;;;;;4.13;3.30;;;13.20;99.90;;;;;;5073976;28;20845;-72
2023/01/01 07:18:50;;;;;;;4.90;3.90;;;13.30;99.90;;;;;;5074314;28;20185;-72
2023/01/01 07:21:29;;;;;;;4.47;3.50;;;13.40;99.90;;;;;;5074397;28;20427;-72
2023/01/01 07:23:56;;;;;;;4.43;3.47;;;13.40;99.90;;;;;;5073917;28;20422;-71
2023/01/01 07:26:25;;;;;;;4.70;2.90;;;13.40;99.90;;;;;;5073864;28;20775;-72
2023/01/01 07:28:51;;;;;;;5.77;3.63;;;13.40;99.90;;;;;;5072368;28;21089;-72
2023/01/01 07:31:17;;;;;;;4.97;3.53;;;13.40;99.90;;;;;;5072635;28;20428;-72
2023/01/01 07:33:42;;;;;;;5.63;3.30;;;13.50;99.90;;;;;;5073958;28;20166;-72
2023/01/01 07:36:08;;;;;;;4.40;3.60;;;13.50;99.90;;;;;;5073891;28;20178;-72
2023/01/01 07:38:33;;;;;;;3.87;3.20;;;13.50;99.90;;;;;;5073720;28;20670;-72
2023/01/01 07:41:00;;;;;;;3.50;2.90;;;13.50;99.90;;;;;;5073723;28;20187;-72
2023/01/01 07:43:26;;;;;;;4.13;3.60;;;13.50;99.90;;;;;;5074023;28;20174;-72
2023/01/01 07:45:51;;;;;;;6.23;3.23;;;13.60;99.90;;;;;;5073229;28;20410;-72
2023/01/01 07:48:17;;;;;;;2.93;2.63;;;13.60;99.90;;;;;;5073160;28;20252;-71
2023/01/01 07:50:43;;;;;;;3.97;3.23;;;13.50;99.90;;;;;;5072850;28;20203;-72
2023/01/01 07:53:09;;;;;;;3.23;2.90;;;13.50;99.90;;;;;;5072323;28;20174;-72
2023/01/01 07:55:35;;;;;;;4.43;2.90;;;13.60;99.90;;;;;;5073784;28;20170;-72
2023/01/01 07:58:01;;;;;;;3.60;3.30;;;13.50;99.90;;;;;;5072088;28;20206;-72
2023/01/01 08:00:27;;;;;;;6.13;3.80;;;13.40;99.90;;;;;;5072986;28;20469;-70
2023/01/01 08:02:53;;;;;;;3.07;2.77;;;13.40;99.90;;;;;;5072373;28;20415;-71
2023/01/01 08:05:19;;;;;;;5.70;3.23;;;13.40;99.90;;;;;;5073633;28;20419;-71
2023/01/01 08:07:46;;;;;;;4.30;3.53;;;13.40;99.90;;;;;;5073416;28;20174;-71
2023/01/01 08:10:12;;;;;;;5.90;2.80;;;13.30;99.90;;;;;;5070615;28;20181;-73
2023/01/01 08:12:38;;;;;;;4.00;2.97;;;13.30;99.90;;;;;;5055751;28;20478;-72
2023/01/01 08:15:04;;;;;;;3.73;3.10;;;13.30;99.90;;;;;;5053017;28;20418;-71
2023/01/01 08:17:29;;;;;;;4.47;3.20;;;13.30;99.90;;;;;;5053447;28;20279;-71
2023/01/01 08:19:55;;;;;;;5.90;3.60;;;13.30;99.90;;;;;;5053209;28;20495;-71
2023/01/01 08:22:20;;;;;;;4.43;3.33;;;13.20;99.90;;;;;;5053152;28;20560;-71
2023/01/01 08:24:46;;;;;;;4.27;3.50;;;13.10;99.90;;;;;;5052910;28;20636;-71
2023/01/01 08:27:15;;;;;;;4.40;3.70;;;12.90;99.90;;;;;;5053152;28;20179;-71
2023/01/01 08:29:42;;;;;;;5.20;3.80;;;12.90;99.90;;;;;;5065423;28;20182;-71
2023/01/01 08:32:08;;;;;;;4.43;3.60;;;12.80;99.90;;;;;;5073104;28;20463;-71
2023/01/01 08:34:33;;;;;;;3.73;2.90;;;12.80;99.90;;;;;;5073438;28;20445;-72
2023/01/01 08:36:59;;;;;;;3.83;3.37;;;12.80;99.90;;;;;;5073539;28;20610;-72
2023/01/01 08:39:25;;;;;;;4.63;3.57;;;12.80;99.90;;;;;;5073290;28;20172;-72
2023/01/01 08:41:50;;;;;;;5.43;4.50;;;12.80;99.90;;;;;;5074073;28;20198;-72
2023/01/01 08:44:16;;;;;;;4.00;3.30;;;12.80;99.90;;;;;;5073897;28;20769;-71
2023/01/01 08:46:41;;;;;;;7.97;4.30;;;12.90;99.90;;;;;;5071816;28;20174;-72
2023/01/01 08:49:07;;;;;;;5.00;3.53;;;12.80;99.90;;;;;;5073090;28;20176;-72
2023/01/01 08:51:32;;;;;;;3.93;3.30;;;12.90;99.90;;;;;;5072971;28;20192;-72
2023/01/01 08:53:58;;;;;;;5.17;3.60;;;13.00;99.90;;;;;;5071905;28;20185;-71
2023/01/01 08:56:24;;;;;;;4.83;3.77;;;13.10;99.90;;;;;;5072498;28;20171;-71
2023/01/01 08:58:49;;;;;;;5.30;3.50;;;13.20;99.90;;;;;;5072737;28;20199;-72
2023/01/01 09:01:15;;;;;;;4.33;3.60;;;13.30;99.90;;;;;;5072607;28;20199;-71
2023/01/01 09:03:41;;;;;;;5.13;3.67;;;13.40;99.90;;;;;;5073201;28;20256;-71
2023/01/01 09:06:06;;;;;;;6.20;3.40;;;13.50;99.90;;;;;;5072844;28;20405;-71
2023/01/01 09:08:32;;;;;;;6.17;3.50;;;13.40;99.90;;;;;;5072810;28;20556;-72
2023/01/01 09:11:00;;;;;;;3.30;3.00;;;13.50;99.90;;;;;;5072670;28;20200;-71
2023/01/01 09:13:26;;;;;;;4.77;3.73;;;13.40;99.90;;;;;;5072811;28;20168;-72
2023/01/01 09:15:52;;;;;;;4.40;3.30;;;13.40;99.90;;;;;;5072708;28;20417;-72
2023/01/01 09:18:18;;;;;;;4.30;3.90;;;13.40;99.90;;;;;;5072570;28;20448;-71
2023/01/01 09:20:43;;;;;;;7.97;3.70;;;13.50;99.90;;;;;;5072527;28;20189;-71
2023/01/01 09:23:10;;;;;;;4.50;3.50;;;13.60;99.90;;;;;;5072368;28;20223;-71
2023/01/01 09:25:35;;;;;;;3.50;3.20;;;13.70;99.90;;;;;;5072866;28;20185;-70
2023/01/01 09:28:04;;;;;;;4.60;3.03;;;13.90;99.90;;;;;;5072360;28;20409;-73
2023/01/01 09:30:30;;;;;;;3.90;3.37;;;14.00;99.90;;;;;;5052315;28;20736;-71
2023/01/01 09:32:55;;;;;;;4.40;3.60;;;14.10;99.90;;;;;;5052416;28;20442;-71
2023/01/01 09:35:21;;;;;;;5.10;3.77;;;14.20;99.90;;;;;;5053030;28;20731;-71
2023/01/01 09:37:47;;;;;;;3.33;3.00;;;14.20;99.90;;;;;;5052381;28;20620;-72
2023/01/01 09:40:31;;;;;;;5.30;4.80;;;14.20;99.90;;;;;;5051022;28;20435;-72
2023/01/01 09:43:38;;;;;;;7.80;4.00;;;13.90;99.90;;;;;;5052723;28;20162;-71
2023/01/01 09:46:06;;;;;;;5.50;3.90;;;14.10;99.90;;;;;;5038062;28;20504;-72
2023/01/01 09:48:34;;;;;;;6.70;4.20;;;14.20;99.90;;;;;;5052584;28;20410;-71
2023/01/01 09:51:04;;;;;;;8.80;4.30;;;14.30;99.90;;;;;;5054845;28;20897;-71
2023/01/01 09:53:54;;;;;;;5.70;4.20;;;14.40;99.90;;;;;;5056151;28;20408;-71
2023/01/01 09:56:28;;;;;;;4.60;3.97;;;14.40;99.90;;;;;;5056043;28;20399;-71
2023/01/01 09:58:57;;;;;;;3.83;3.07;;;14.50;99.90;;;;;;5062283;28;20444;-73
2023/01/01 10:01:46;;;;;;;4.70;3.30;;;14.60;99.90;;;;;;5099152;22;20539;-74
2023/01/01 10:04:26;;;;;;;3.57;3.27;;;14.70;99.90;;;;;;5076185;28;20434;-73
2023/01/01 10:07:15;;;;;;;2.77;2.50;;;14.80;99.90;;;;;;5075838;28;20875;-73
2023/01/01 10:09:49;;;;;;;5.50;3.87;;;15.00;99.90;;;;;;5075859;28;20395;-73
2023/01/01 10:12:30;;;;;;;3.40;2.50;;;15.00;99.90;;;;;;5075702;28;20424;-74
2023/01/01 10:15:17;;;;;;;7.03;3.53;;;15.10;99.90;;;;;;5075937;28;20403;-74
2023/01/01 10:17:49;;;;;;;4.40;3.10;;;15.30;99.90;;;;;;5074736;28;20443;-74
2023/01/01 10:20:28;;;;;;;5.17;4.10;;;15.60;99.90;;;;;;5065548;28;20405;-74
2023/01/01 10:23:01;;;;;;;3.63;3.07;;;15.80;99.90;;;;;;5037274;28;20436;-74
2023/01/01 10:25:30;;;;;;;3.20;2.90;;;15.80;99.90;;;;;;5055494;28;20865;-74
2023/01/01 10:28:04;;;;;;;4.13;3.17;;;15.90;99.90;;;;;;5037288;28;20410;-75
2023/01/01 10:30:30;;;;;;;5.30;3.60;;;15.90;99.90;;;;;;5073148;28;20422;-75
2023/01/01 10:32:57;;;;;;;7.80;5.77;;;16.00;99.90;;;;;;5074902;28;20930;-73
2023/01/01 10:35:34;;;;;;;4.23;3.40;;;16.20;99.90;;;;;;5075114;28;20177;-73
2023/01/01 10:38:02;;;;;;;5.70;3.03;;;16.30;99.90;;;;;;5073549;28;20447;-73
2023/01/01 10:40:29;;;;;;;5.30;3.10;;;16.40;99.90;;;;;;5074838;28;20443;-74
2023/01/01 10:42:56;;;;;;;5.23;4.37;;;16.60;99.90;;;;;;5074711;28;20794;-74
2023/01/01 10:45:52;;;;;;;3.93;3.30;;;16.70;99.90;;;;;;5073889;28;20739;-75
2023/01/01 10:48:24;;;;;;;6.67;3.57;;;16.80;99.90;;;;;;5034840;28;20394;-74
2023/01/01 10:51:02;;;;;;;4.20;3.70;;;16.90;99.90;;;;;;5034664;28;20905;-74
2023/01/01 10:53:30;;;;;;;4.33;2.60;;;16.90;99.90;;;;;;5016847;28;20410;-73
2023/01/01 10:56:01;;;;;;;3.70;2.93;;;16.90;99.90;;;;;;5034692;28;20412;-74
2023/01/01 10:58:33;;;;;;;7.30;3.10;;;17.00;99.90;;;;;;5060387;28;20440;-73
2023/01/01 11:01:00;;;;;;;6.50;3.03;;;17.20;99.90;;;;;;5073436;28;20432;-72
2023/01/01 11:03:26;;;;;;;4.33;2.83;;;17.50;99.90;;;;;;5072423;28;20770;-73
2023/01/01 11:06:22;;;;;;;6.13;3.53;;;17.80;99.90;;;;;;5074108;28;20401;-73
2023/01/01 11:08:58;;;;;;;4.70;2.77;;;18.70;99.90;;;;;;5073064;28;20634;-73
2023/01/01 11:11:31;;;;;;;7.00;3.20;;;19.50;99.90;;;;;;5074395;28;20474;-73
2023/01/01 11:14:02;;;;;;;3.83;2.80;;;20.00;99.90;;;;;;5072244;28;20465;-73
2023/01/01 11:16:28;;;;;;;6.10;2.90;;;20.20;99.70;;;;;;5074646;28;20377;-73
2023/01/01 11:19:05;;;;;;;8.20;2.73;;;20.70;99.60;;;;;;5074109;28;20404;-73
2023/01/01 11:21:32;;;;;;;6.03;3.47;;;21.50;98.10;;;;;;5074340;28;20419;-73
2023/01/01 11:24:18;;;;;;;5.40;3.20;;;22.00;96.70;;;;;;5074133;28;20400;-72
2023/01/01 11:26:44;;;;;;;3.30;2.53;;;22.20;96.40;;;;;;5074687;28;20423;-73
2023/01/01 11:29:21;;;;;;;6.33;2.87;;;22.70;95.70;;;;;;5071991;28;20525;-73
2023/01/01 11:31:48;;;;;;;5.00;2.70;;;22.50;94.40;;;;;;5074121;28;20427;-74
2023/01/01 11:34:38;;;;;;;6.00;2.90;;;22.60;94.40;;;;;;5074077;28;20786;-73
2023/01/01 11:37:09;;;;;;;4.37;2.40;;;22.40;93.90;;;;;;5034272;28;20430;-73
2023/01/01 11:39:36;;;;;;;3.50;2.40;;;22.10;94.20;;;;;;5034168;28;20426;-73
2023/01/01 11:42:03;;;;;;;4.80;2.83;;;22.50;93.50;;;;;;5034085;28;20418;-73
2023/01/01 11:44:43;;;;;;;3.63;2.60;;;23.10;93.20;;;;;;5033676;28;20402;-72
2023/01/01 11:47:24;;;;;;;5.27;2.40;;;23.40;92.00;;;;;;5034323;28;20394;-73
2023/01/01 11:50:20;;;;;;;5.33;2.77;;;23.10;91.90;;;;;;5034348;28;20440;-73
2023/01/01 11:52:48;;;;;;;4.10;2.37;;;22.80;91.70;;;;;;5034967;28;20457;-72
2023/01/01 11:55:20;;;;;;;4.77;2.50;;;22.80;92.00;;;;;;5034478;28;20464;-73
2023/01/01 11:57:56;;;;;;;2.93;2.60;;;23.80;91.60;;;;;;5024896;28;20451;-73
2023/01/01 12:00:21;;;;;;;3.70;2.10;;;24.40;90.10;;;;;;5074444;28;20399;-73
2023/01/01 12:03:28;;;;;;;3.60;2.70;;;23.80;90.00;;;;;;5073987;28;20452;-73
2023/01/01 12:05:59;;;;;;;3.83;2.60;;;23.30;90.40;;;;;;5055271;28;20174;-73
2023/01/01 12:08:55;;;;;;;2.60;2.23;;;24.10;89.30;;;;;;5073496;28;20471;-73
2023/01/01 12:11:41;;;;;;;4.13;2.83;;;24.70;86.40;;;;;;5051562;28;20519;-73
2023/01/01 12:14:39;;;;;;;4.10;2.60;;;24.80;84.90;;;;;;5072980;28;20479;-75
2023/01/01 12:17:22;;;;;;;5.77;2.67;;;25.30;84.40;;;;;;5065380;28;20441;-73
2023/01/01 12:20:15;;;;;;;4.43;2.43;;;25.80;83.10;;;;;;5053086;28;20759;-73
2023/01/01 12:22:41;;;;;;;4.83;2.80;;;25.60;80.50;;;;;;5052980;28;20845;-73
2023/01/01 12:25:12;;;;;;;3.53;2.30;;;25.10;80.10;;;;;;5053014;28;20480;-73
2023/01/01 12:28:02;;;;;;;4.97;2.47;;;24.50;82.40;;;;;;5034963;28;20171;-74
2023/01/01 12:30:34;;;;;;;5.63;2.70;;;24.30;82.20;;;;;;5055590;28;20443;-73
2023/01/01 12:33:07;;;;;;;6.33;2.47;;;25.50;80.80;;;;;;5073437;28;20827;-74
2023/01/01 12:35:57;;;;;;;4.27;2.67;;;25.10;78.80;;;;;;5073527;28;20437;-74
2023/01/01 12:38:33;;;;;;;4.37;2.30;;;24.00;80.90;;;;;;5073549;28;20497;-71
2023/01/01 12:41:31;;;;;;;2.70;2.17;;;23.60;82.00;;;;;;5073155;28;20419;-72
2023/01/01 12:44:10;;;;;;;4.83;2.40;;;22.60;82.70;;;;;;5073574;28;20912;-72
2023/01/01 12:46:58;;;;;;;3.77;2.73;;;21.40;89.30;;;;;;5072678;28;20948;-73
2023/01/01 12:49:31;;;;;;;5.27;2.70;;;21.00;90.10;;;;;;5054976;28;20409;-73
2023/01/01 12:52:15;;;;;;;5.10;2.80;;;20.60;90.60;;;;;;5073211;28;20882;-73
2023/01/01 12:55:05;;;;;;;3.17;2.00;;;20.00;91.80;;;;;;5070909;28;20829;-73
2023/01/01 12:57:38;;;;;;;5.73;3.27;;;20.00;91.50;;;;;;5054785;28;20497;-73
2023/01/01 13:00:15;;;;;;;6.20;2.53;;;19.80;92.80;;;;;;5047294;28;20402;-73
2023/01/01 13:02:51;;;;;;;5.30;3.13;;;19.70;93.00;;;;;;5015195;28;20822;-73
2023/01/01 13:05:40;;;;;;;5.20;3.13;;;19.40;93.20;;;;;;5032837;28;20404;-72